Terminal Aerodrome Forecast
Issued by NWS Binghamton, NY

Home | Current Version | Previous Version | Text Only | Print | Product List | Glossary On
Versions: 1 2 3 4 5 6 7 8 9 10 11 12 13 14 15 16 17 18 19 20 21 22 23 24 25
000
FTUS41 KBGM 202300
TAFBGM
TAF
KBGM 202320Z 2100/2124 18005KT P6SM OVC070
     FM211000 17005KT 6SM -SHRA OVC025
      TEMPO 2112/2116 3SM -SHRA BR OVC015
     FM211900 33003KT P6SM OVC035
      TEMPO 2119/2123 OVC025=

USA.gov is the U.S. government's official web portal to all federal, state and local government web resources and services.